sensor_id;sensor_type;location;lat;lon;timestamp;pressure;altitude;pressure_sealevel;temperature;humidity
19748;BME280;10032;51.386;12.516;2024-03-23T00:54:37;99388.88;;;11.45;100.00
19748;BME280;10032;51.386;12.516;2024-03-23T00:57:02;99380.22;;;11.48;100.00
19748;BME280;10032;51.386;12.516;2024-03-23T00:59:28;99362.59;;;11.46;100.00
19748;BME280;10032;51.386;12.516;2024-03-23T01:01:54;99366.66;;;11.48;100.00
19748;BME280;10032;51.386;12.516;2024-03-23T01:04:20;99358.53;;;11.48;100.00
19748;BME280;10032;51.386;12.516;2024-03-23T01:06:45;99350.38;;;11.48;100.00
19748;BME280;10032;51.386;12.516;2024-03-23T01:09:11;99357.16;;;11.51;100.00
19748;BME280;10032;51.386;12.516;2024-03-23T01:11:37;99356.59;;;11.49;100.00
19748;BME280;10032;51.386;12.516;2024-03-23T01:14:03;99343.59;;;11.51;100.00
19748;BME280;10032;51.386;12.516;2024-03-23T01:16:28;99340.31;;;11.49;100.00
19748;BME280;10032;51.386;12.516;2024-03-23T01:18:53;99344.38;;;11.51;100.00
19748;BME280;10032;51.386;12.516;2024-03-23T01:21:19;99338.69;;;11.53;100.00
19748;BME280;10032;51.386;12.516;2024-03-23T01:23:44;99330.28;;;11.54;100.00
19748;BME280;10032;51.386;12.516;2024-03-23T01:26:10;99323.25;;;11.48;100.00
19748;BME280;10032;51.386;12.516;2024-03-23T01:28:35;99316.75;;;11.44;100.00
19748;BME280;10032;51.386;12.516;2024-03-23T01:31:01;99318.38;;;11.40;100.00
19748;BME280;10032;51.386;12.516;2024-03-23T01:33:26;99316.25;;;11.32;100.00
19748;BME280;10032;51.386;12.516;2024-03-23T01:35:51;99313.53;;;11.27;100.00
19748;BME280;10032;51.386;12.516;2024-03-23T01:38:17;99303.78;;;11.21;100.00
19748;BME280;10032;51.386;12.516;2024-03-23T01:40:42;99304.84;;;11.20;100.00
19748;BME280;10032;51.386;12.516;2024-03-23T01:43:08;99302.72;;;11.12;100.00
19748;BME280;10032;51.386;12.516;2024-03-23T01:45:34;99297.31;;;11.07;100.00
19748;BME280;10032;51.386;12.516;2024-03-23T01:48:00;99301.38;;;11.10;100.00
19748;BME280;10032;51.386;12.516;2024-03-23T01:50:26;99285.38;;;11.03;100.00
19748;BME280;10032;51.386;12.516;2024-03-23T01:52:52;99289.72;;;10.94;100.00
19748;BME280;10032;51.386;12.516;2024-03-23T01:55:17;99281.91;;;10.88;100.00
19748;BME280;10032;51.386;12.516;2024-03-23T01:57:43;99288.09;;;10.78;100.00
19748;BME280;10032;51.386;12.516;2024-03-23T02:00:09;99282.16;;;10.71;100.00
19748;BME280;10032;51.386;12.516;2024-03-23T02:02:42;99277.28;;;10.68;100.00
19748;BME280;10032;51.386;12.516;2024-03-23T02:05:08;99271.31;;;10.61;100.00
19748;BME280;10032;51.386;12.516;2024-03-23T02:07:33;99274.03;;;10.61;100.00
19748;BME280;10032;51.386;12.516;2024-03-23T02:10:00;99275.13;;;10.60;100.00
19748;BME280;10032;51.386;12.516;2024-03-23T02:12:26;99281.06;;;10.57;100.00
19748;BME280;10032;51.386;12.516;2024-03-23T02:14:51;99290.56;;;10.60;100.00
19748;BME280;10032;51.386;12.516;2024-03-23T02:17:16;99288.13;;;10.58;100.00
19748;BME280;10032;51.386;12.516;2024-03-23T02:19:42;99281.06;;;10.52;100.00
19748;BME280;10032;51.386;12.516;2024-03-23T02:22:07;99269.97;;;10.49;100.00
19748;BME280;10032;51.386;12.516;2024-03-23T02:24:32;99277.00;;;10.55;100.00
19748;BME280;10032;51.386;12.516;2024-03-23T02:26:59;99270.53;;;10.56;100.00
19748;BME280;10032;51.386;12.516;2024-03-23T02:29:24;99265.38;;;10.54;100.00
19748;BME280;10032;51.386;12.516;2024-03-23T02:31:50;99272.41;;;10.55;100.00
19748;BME280;10032;51.386;12.516;2024-03-23T02:34:15;99276.47;;;10.53;100.00
19748;BME280;10032;51.386;12.516;2024-03-23T02:36:40;99269.19;;;10.53;100.00
19748;BME280;10032;51.386;12.516;2024-03-23T02:39:06;99267.00;;;10.55;100.00
19748;BME280;10032;51.386;12.516;2024-03-23T02:41:31;99257.00;;;10.56;100.00
19748;BME280;10032;51.386;12.516;2024-03-23T02:43:57;99250.75;;;10.55;100.00
19748;BME280;10032;51.386;12.516;2024-03-23T02:46:22;99241.00;;;10.49;100.00
19748;BME280;10032;51.386;12.516;2024-03-23T02:48:51;99233.97;;;10.48;100.00
19748;BME280;10032;51.386;12.516;2024-03-23T02:51:16;99215.81;;;10.44;100.00
19748;BME280;10032;51.386;12.516;2024-03-23T02:53:41;99215.53;;;10.45;100.00
19748;BME280;10032;51.386;12.516;2024-03-23T02:56:07;99222.56;;;10.51;100.00
19748;BME280;10032;51.386;12.516;2024-03-23T02:58:33;99221.50;;;10.52;100.00
19748;BME280;10032;51.386;12.516;2024-03-23T03:00:58;99220.44;;;10.53;100.00
19748;BME280;10032;51.386;12.516;2024-03-23T03:03:24;99224.50;;;10.51;100.00
19748;BME280;10032;51.386;12.516;2024-03-23T03:05:55;99218.78;;;10.52;100.00
19748;BME280;10032;51.386;12.516;2024-03-23T03:08:21;99222.03;;;10.59;100.00
19748;BME280;10032;51.386;12.516;2024-03-23T03:10:46;99224.19;;;10.52;100.00
19748;BME280;10032;51.386;12.516;2024-03-23T03:13:12;99216.63;;;10.54;100.00
19748;BME280;10032;51.386;12.516;2024-03-23T03:15:37;99205.81;;;10.44;100.00
19748;BME280;10032;51.386;12.516;2024-03-23T03:18:02;99186.84;;;10.39;100.00
19748;BME280;10032;51.386;12.516;2024-03-23T03:20:28;99185.75;;;10.40;100.00
19748;BME280;10032;51.386;12.516;2024-03-23T03:22:53;99202.00;;;10.45;100.00
19748;BME280;10032;51.386;12.516;2024-03-23T03:25:19;99196.84;;;10.49;100.00
19748;BME280;10032;51.386;12.516;2024-03-23T03:27:44;99191.69;;;10.52;100.00
19748;BME280;10032;51.386;12.516;2024-03-23T03:30:10;99186.28;;;10.52;100.00
19748;BME280;10032;51.386;12.516;2024-03-23T03:32:35;99190.63;;;10.48;100.00
19748;BME280;10032;51.386;12.516;2024-03-23T03:35:00;99189.81;;;10.53;100.00
19748;BME280;10032;51.386;12.516;2024-03-23T03:37:26;99178.47;;;10.46;100.00
19748;BME280;10032;51.386;12.516;2024-03-23T03:39:51;99171.97;;;10.42;100.00
19748;BME280;10032;51.386;12.516;2024-03-23T03:42:17;99158.16;;;10.38;100.00
19748;BME280;10032;51.386;12.516;2024-03-23T03:44:42;99150.81;;;10.39;100.00
19748;BME280;10032;51.386;12.516;2024-03-23T03:47:07;99156.25;;;10.39;100.00
19748;BME280;10032;51.386;12.516;2024-03-23T03:49:33;99154.34;;;10.39;100.00
19748;BME280;10032;51.386;12.516;2024-03-23T03:51:58;99161.38;;;10.40;100.00
19748;BME280;10032;51.386;12.516;2024-03-23T03:54:26;99151.66;;;10.44;100.00
19748;BME280;10032;51.386;12.516;2024-03-23T03:56:51;99146.22;;;10.44;100.00
19748;BME280;10032;51.386;12.516;2024-03-23T03:59:17;99140.81;;;10.44;100.00
19748;BME280;10032;51.386;12.516;2024-03-23T04:01:42;99141.06;;;10.48;100.00
19748;BME280;10032;51.386;12.516;2024-03-23T04:04:08;99136.75;;;10.52;100.00
19748;BME280;10032;51.386;12.516;2024-03-23T04:06:33;99137.00;;;10.50;100.00
19748;BME280;10032;51.386;12.516;2024-03-23T04:08:59;99137.00;;;10.45;100.00
19748;BME280;10032;51.386;12.516;2024-03-23T04:11:24;99131.59;;;10.45;100.00
19748;BME280;10032;51.386;12.516;2024-03-23T04:13:50;99130.25;;;10.48;100.00
19748;BME280;10032;51.386;12.516;2024-03-23T04:16:33;99129.72;;;10.51;100.00
19748;BME280;10032;51.386;12.516;2024-03-23T04:18:59;99127.00;;;10.51;100.00
19748;BME280;10032;51.386;12.516;2024-03-23T04:21:24;99133.19;;;10.56;100.00
19748;BME280;10032;51.386;12.516;2024-03-23T04:23:49;99132.41;;;10.61;100.00
19748;BME280;10032;51.386;12.516;2024-03-23T04:26:15;99107.47;;;10.59;100.00
19748;BME280;10032;51.386;12.516;2024-03-23T04:28:41;99068.22;;;10.51;100.00
19748;BME280;10032;51.386;12.516;2024-03-23T04:31:07;99070.41;;;10.44;100.00
19748;BME280;10032;51.386;12.516;2024-03-23T04:33:32;99082.84;;;10.45;100.00
19748;BME280;10032;51.386;12.516;2024-03-23T04:35:58;99075.81;;;10.44;100.00
19748;BME280;10032;51.386;12.516;2024-03-23T04:38:23;99071.22;;;10.45;100.00
19748;BME280;10032;51.386;12.516;2024-03-23T04:40:59;99062.31;;;10.39;100.00
19748;BME280;10032;51.386;12.516;2024-03-23T04:43:26;99055.81;;;10.35;100.00
19748;BME280;10032;51.386;12.516;2024-03-23T04:45:51;99053.09;;;10.40;100.00
19748;BME280;10032;51.386;12.516;2024-03-23T04:48:20;99039.28;;;10.42;100.00
19748;BME280;10032;51.386;12.516;2024-03-23T04:50:45;99044.94;;;10.45;100.00
19748;BME280;10032;51.386;12.516;2024-03-23T04:53:11;99048.22;;;10.42;100.00
19748;BME280;10032;51.386;12.516;2024-03-23T04:55:36;99041.72;;;10.43;100.00
19748;BME280;10032;51.386;12.516;2024-03-23T04:58:02;99042.00;;;10.37;100.00
19748;BME280;10032;51.386;12.516;2024-03-23T05:00:28;99031.44;;;10.35;100.00
19748;BME280;10032;51.386;12.516;2024-03-23T05:02:53;99028.72;;;10.35;100.00
19748;BME280;10032;51.386;12.516;2024-03-23T05:05:19;99023.34;;;10.30;100.00
19748;BME280;10032;51.386;12.516;2024-03-23T05:07:44;99023.34;;;10.25;100.00
19748;BME280;10032;51.386;12.516;2024-03-23T05:10:09;99011.19;;;10.18;100.00
19748;BME280;10032;51.386;12.516;2024-03-23T05:12:38;98984.13;;;10.18;100.00
19748;BME280;10032;51.386;12.516;2024-03-23T05:15:05;98981.69;;;10.21;100.00
19748;BME280;10032;51.386;12.516;2024-03-23T05:17:32;98964.38;;;10.22;100.00
19748;BME280;10032;51.386;12.516;2024-03-23T05:19:57;98960.53;;;10.28;100.00
19748;BME280;10032;51.386;12.516;2024-03-23T05:22:22;98976.25;;;10.26;100.00
19748;BME280;10032;51.386;12.516;2024-03-23T05:24:48;98979.78;;;10.22;100.00
19748;BME280;10032;51.386;12.516;2024-03-23T05:27:14;98984.41;;;10.21;100.00
19748;BME280;10032;51.386;12.516;2024-03-23T05:29:39;98955.16;;;10.18;100.00
19748;BME280;10032;51.386;12.516;2024-03-23T05:32:05;98940.03;;;10.17;100.00
19748;BME280;10032;51.386;12.516;2024-03-23T05:34:30;98944.88;;;10.20;100.00
19748;BME280;10032;51.386;12.516;2024-03-23T05:36:56;98944.84;;;10.25;100.00
19748;BME280;10032;51.386;12.516;2024-03-23T05:39:21;98962.75;;;10.21;100.00
19748;BME280;10032;51.386;12.516;2024-03-23T05:41:48;98961.66;;;10.22;100.00
19748;BME280;10032;51.386;12.516;2024-03-23T05:44:13;98948.91;;;10.23;100.00
19748;BME280;10032;51.386;12.516;2024-03-23T05:46:40;98950.28;;;10.20;100.00
19748;BME280;10032;51.386;12.516;2024-03-23T05:49:05;98958.41;;;10.20;100.00
19748;BME280;10032;51.386;12.516;2024-03-23T05:51:31;98961.66;;;10.22;100.00
19748;BME280;10032;51.386;12.516;2024-03-23T05:53:56;98944.06;;;10.20;100.00
19748;BME280;10032;51.386;12.516;2024-03-23T05:56:22;98925.16;;;10.15;100.00
19748;BME280;10032;51.386;12.516;2024-03-23T05:58:47;98913.50;;;10.14;100.00
19748;BME280;10032;51.386;12.516;2024-03-23T06:01:13;98911.34;;;10.16;100.00
19748;BME280;10032;51.386;12.516;2024-03-23T06:03:39;98915.41;;;10.19;100.00
19748;BME280;10032;51.386;12.516;2024-03-23T06:06:04;98935.13;;;10.24;100.00
19748;BME280;10032;51.386;12.516;2024-03-23T06:08:30;98927.00;;;10.24;100.00
19748;BME280;10032;51.386;12.516;2024-03-23T06:10:56;98920.81;;;10.19;100.00
19748;BME280;10032;51.386;12.516;2024-03-23T06:13:21;98925.41;;;10.18;100.00
19748;BME280;10032;51.386;12.516;2024-03-23T06:15:54;98912.72;;;10.14;100.00
19748;BME280;10032;51.386;12.516;2024-03-23T06:18:20;98903.22;;;10.16;100.00
19748;BME280;10032;51.386;12.516;2024-03-23T06:20:45;98898.34;;;10.13;100.00
19748;BME280;10032;51.386;12.516;2024-03-23T06:23:11;98885.91;;;10.12;100.00
19748;BME280;10032;51.386;12.516;2024-03-23T06:25:38;98904.84;;;10.12;100.00
19748;BME280;10032;51.386;12.516;2024-03-23T06:28:03;98906.47;;;10.13;100.00
19748;BME280;10032;51.386;12.516;2024-03-23T06:30:29;98891.06;;;10.09;100.00
19748;BME280;10032;51.386;12.516;2024-03-23T06:32:57;98880.28;;;10.04;100.00
19748;BME280;10032;51.386;12.516;2024-03-23T06:35:22;98880.78;;;10.01;100.00
19748;BME280;10032;51.386;12.516;2024-03-23T06:37:47;98860.50;;;10.08;100.00
19748;BME280;10032;51.386;12.516;2024-03-23T06:40:13;98855.63;;;10.00;100.00
19748;BME280;10032;51.386;12.516;2024-03-23T06:42:39;98863.78;;;9.95;100.00
19748;BME280;10032;51.386;12.516;2024-03-23T06:45:05;98861.38;;;9.89;100.00
19748;BME280;10032;51.386;12.516;2024-03-23T06:47:31;98865.41;;;9.91;100.00
19748;BME280;10032;51.386;12.516;2024-03-23T06:49:56;98864.06;;;9.89;100.00
19748;BME280;10032;51.386;12.516;2024-03-23T06:52:21;98843.53;;;9.88;100.00
19748;BME280;10032;51.386;12.516;2024-03-23T06:54:47;98831.63;;;9.84;100.00
19748;BME280;10032;51.386;12.516;2024-03-23T06:57:12;98814.03;;;9.86;100.00
19748;BME280;10032;51.386;12.516;2024-03-23T06:59:38;98807.56;;;9.82;100.00
19748;BME280;10032;51.386;12.516;2024-03-23T07:02:06;98800.53;;;9.81;100.00
19748;BME280;10032;51.386;12.516;2024-03-23T07:04:34;98804.88;;;9.77;100.00
19748;BME280;10032;51.386;12.516;2024-03-23T07:06:59;98797.03;;;9.71;100.00
19748;BME280;10032;51.386;12.516;2024-03-23T07:09:25;98788.97;;;9.66;100.00
19748;BME280;10032;51.386;12.516;2024-03-23T07:11:54;98785.97;;;9.67;100.00
19748;BME280;10032;51.386;12.516;2024-03-23T07:14:19;98783.28;;;9.67;100.00
19748;BME280;10032;51.386;12.516;2024-03-23T07:16:45;98781.41;;;9.63;100.00
19748;BME280;10032;51.386;12.516;2024-03-23T07:19:10;98783.59;;;9.61;100.00
19748;BME280;10032;51.386;12.516;2024-03-23T07:21:35;98778.47;;;9.59;100.00
19748;BME280;10032;51.386;12.516;2024-03-23T07:24:01;98791.72;;;9.56;100.00
19748;BME280;10032;51.386;12.516;2024-03-23T07:26:26;98789.81;;;9.51;100.00
19748;BME280;10032;51.386;12.516;2024-03-23T07:28:52;98768.53;;;9.40;100.00
19748;BME280;10032;51.386;12.516;2024-03-23T07:31:18;98758.53;;;9.35;100.00
19748;BME280;10032;51.386;12.516;2024-03-23T07:33:45;98751.00;;;9.32;100.00
19748;BME280;10032;51.386;12.516;2024-03-23T07:36:11;98764.53;;;9.22;100.00
19748;BME280;10032;51.386;12.516;2024-03-23T07:38:37;98776.69;;;9.20;100.00
19748;BME280;10032;51.386;12.516;2024-03-23T07:41:09;98796.69;;;9.19;100.00
19748;BME280;10032;51.386;12.516;2024-03-23T07:43:37;98770.50;;;9.09;100.00
19748;BME280;10032;51.386;12.516;2024-03-23T07:46:03;98752.69;;;8.98;100.00
19748;BME280;10032;51.386;12.516;2024-03-23T07:48:31;98819.69;;;8.96;100.00
19748;BME280;10032;51.386;12.516;2024-03-23T07:51:04;98855.34;;;9.03;100.00
19748;BME280;10032;51.386;12.516;2024-03-23T07:53:30;98836.97;;;8.85;100.00
19748;BME280;10032;51.386;12.516;2024-03-23T07:56:06;98805.66;;;8.54;100.00
19748;BME280;10032;51.386;12.516;2024-03-23T07:58:31;98827.22;;;8.39;100.00
19748;BME280;10032;51.386;12.516;2024-03-23T08:01:06;98818.56;;;8.22;100.00
19748;BME280;10032;51.386;12.516;2024-03-23T08:03:36;98838.75;;;8.15;100.00
19748;BME280;10032;51.386;12.516;2024-03-23T08:06:19;98868.13;;;8.06;100.00
19748;BME280;10032;51.386;12.516;2024-03-23T08:08:46;98849.38;;;7.75;100.00
19748;BME280;10032;51.386;12.516;2024-03-23T08:11:12;98847.22;;;7.67;100.00
19748;BME280;10032;51.386;12.516;2024-03-23T08:13:42;98831.16;;;7.40;100.00
19748;BME280;10032;51.386;12.516;2024-03-23T08:16:08;98848.31;;;7.24;100.00
19748;BME280;10032;51.386;12.516;2024-03-23T08:18:34;98865.97;;;7.05;100.00
19748;BME280;10032;51.386;12.516;2024-03-23T08:21:01;98875.63;;;7.01;100.00
19748;BME280;10032;51.386;12.516;2024-03-23T08:23:28;98884.41;;;6.87;100.00
19748;BME280;10032;51.386;12.516;2024-03-23T08:25:58;98903.69;;;6.79;100.00
19748;BME280;10032;51.386;12.516;2024-03-23T08:28:24;98898.13;;;6.59;100.00
19748;BME280;10032;51.386;12.516;2024-03-23T08:30:50;98908.84;;;6.54;100.00
19748;BME280;10032;51.386;12.516;2024-03-23T08:33:16;98917.63;;;6.44;100.00
19748;BME280;10032;51.386;12.516;2024-03-23T08:35:41;98935.03;;;6.37;100.00
19748;BME280;10032;51.386;12.516;2024-03-23T08:38:07;98951.97;;;6.37;100.00
19748;BME280;10032;51.386;12.516;2024-03-23T08:40:32;98955.03;;;6.24;100.00
19748;BME280;10032;51.386;12.516;2024-03-23T08:42:58;98957.25;;;6.27;100.00
19748;BME280;10032;51.386;12.516;2024-03-23T08:45:24;98972.19;;;6.18;100.00
19748;BME280;10032;51.386;12.516;2024-03-23T08:47:50;98981.00;;;6.14;100.00
19748;BME280;10032;51.386;12.516;2024-03-23T08:50:15;98983.81;;;6.02;100.00
19748;BME280;10032;51.386;12.516;2024-03-23T08:52:41;99006.41;;;5.85;100.00
19748;BME280;10032;51.386;12.516;2024-03-23T08:55:06;99019.59;;;5.86;100.00
19748;BME280;10032;51.386;12.516;2024-03-23T08:57:32;99033.69;;;5.77;100.00
19748;BME280;10032;51.386;12.516;2024-03-23T08:59:57;99038.41;;;5.86;100.00
19748;BME280;10032;51.386;12.516;2024-03-23T09:02:23;99045.22;;;5.77;100.00
19748;BME280;10032;51.386;12.516;2024-03-23T09:04:48;99051.66;;;5.76;100.00
19748;BME280;10032;51.386;12.516;2024-03-23T09:07:14;99039.41;;;5.80;100.00
19748;BME280;10032;51.386;12.516;2024-03-23T09:09:39;99045.22;;;5.77;100.00
19748;BME280;10032;51.386;12.516;2024-03-23T09:12:05;99038.97;;;5.88;100.00
19748;BME280;10032;51.386;12.516;2024-03-23T09:14:32;99051.44;;;5.94;100.00
19748;BME280;10032;51.386;12.516;2024-03-23T09:16:58;99069.19;;;5.95;100.00
19748;BME280;10032;51.386;12.516;2024-03-23T09:19:23;99080.25;;;5.99;100.00
19748;BME280;10032;51.386;12.516;2024-03-23T09:21:49;99080.66;;;6.07;100.00
19748;BME280;10032;51.386;12.516;2024-03-23T09:24:14;99077.47;;;6.10;100.00
19748;BME280;10032;51.386;12.516;2024-03-23T09:26:40;99079.41;;;6.15;100.00
19748;BME280;10032;51.386;12.516;2024-03-23T09:29:05;99069.81;;;6.19;100.00
19748;BME280;10032;51.386;12.516;2024-03-23T09:31:30;99070.13;;;6.22;100.00
19748;BME280;10032;51.386;12.516;2024-03-23T09:33:58;99057.88;;;6.31;100.00
19748;BME280;10032;51.386;12.516;2024-03-23T09:36:23;99059.13;;;6.45;100.00
19748;BME280;10032;51.386;12.516;2024-03-23T09:38:48;99057.09;;;6.52;100.00
19748;BME280;10032;51.386;12.516;2024-03-23T09:41:14;99067.28;;;6.72;100.00
19748;BME280;10032;51.386;12.516;2024-03-23T09:43:40;99093.78;;;6.85;100.00
19748;BME280;10032;51.386;12.516;2024-03-23T09:46:05;99112.16;;;6.88;100.00
19748;BME280;10032;51.386;12.516;2024-03-23T09:48:31;99126.78;;;6.75;100.00
19748;BME280;10032;51.386;12.516;2024-03-23T09:50:56;99153.69;;;6.75;100.00
19748;BME280;10032;51.386;12.516;2024-03-23T09:53:22;99158.53;;;6.73;100.00
19748;BME280;10032;51.386;12.516;2024-03-23T09:55:48;99168.72;;;6.71;100.00
19748;BME280;10032;51.386;12.516;2024-03-23T09:58:15;99160.81;;;6.65;100.00
19748;BME280;10032;51.386;12.516;2024-03-23T10:00:41;99165.63;;;6.63;100.00
19748;BME280;10032;51.386;12.516;2024-03-23T10:03:06;99148.63;;;6.57;100.00
19748;BME280;10032;51.386;12.516;2024-03-23T10:05:32;99176.75;;;6.50;100.00
19748;BME280;10032;51.386;12.516;2024-03-23T10:08:18;99181.41;;;6.54;100.00
19748;BME280;10032;51.386;12.516;2024-03-23T10:10:44;99185.72;;;6.55;100.00
19748;BME280;10032;51.386;12.516;2024-03-23T10:13:11;99196.53;;;6.60;100.00
19748;BME280;10032;51.386;12.516;2024-03-23T10:15:39;99208.94;;;6.61;100.00
19748;BME280;10032;51.386;12.516;2024-03-23T10:18:25;99227.44;;;6.74;100.00
19748;BME280;10032;51.386;12.516;2024-03-23T10:21:07;99233.22;;;6.66;100.00
19748;BME280;10032;51.386;12.516;2024-03-23T10:23:34;99230.53;;;6.66;100.00
19748;BME280;10032;51.386;12.516;2024-03-23T10:26:24;99241.38;;;6.71;100.00
19748;BME280;10032;51.386;12.516;2024-03-23T10:31:20;99229.91;;;6.59;100.00
19748;BME280;10032;51.386;12.516;2024-03-23T10:33:46;99248.31;;;6.67;100.00
19748;BME280;10032;51.386;12.516;2024-03-23T10:36:12;99252.66;;;6.68;100.00
19748;BME280;10032;51.386;12.516;2024-03-23T10:38:40;99269.91;;;6.72;100.00
19748;BME280;10032;51.386;12.516;2024-03-23T10:41:08;99269.91;;;6.72;100.00
19748;BME280;10032;51.386;12.516;2024-03-23T10:43:34;99279.66;;;6.73;100.00
19748;BME280;10032;51.386;12.516;2024-03-23T10:45:59;99293.75;;;6.64;100.00
19748;BME280;10032;51.386;12.516;2024-03-23T10:48:25;99299.31;;;6.57;100.00
19748;BME280;10032;51.386;12.516;2024-03-23T10:50:50;99293.00;;;6.52;100.00
19748;BME280;10032;51.386;12.516;2024-03-23T10:53:16;99296.94;;;6.61;100.00
19748;BME280;10032;51.386;12.516;2024-03-23T10:55:43;99299.63;;;6.61;100.00
19748;BME280;10032;51.386;12.516;2024-03-23T10:58:10;99306.63;;;6.62;100.00
19748;BME280;10032;51.386;12.516;2024-03-23T11:00:38;99315.44;;;6.57;100.00
19748;BME280;10032;51.386;12.516;2024-03-23T11:03:36;99307.09;;;6.59;100.00
19748;BME280;10032;51.386;12.516;2024-03-23T11:06:06;99322.88;;;6.67;100.00
19748;BME280;10032;51.386;12.516;2024-03-23T11:08:39;99323.09;;;6.65;100.00
19748;BME280;10032;51.386;12.516;2024-03-23T11:11:18;99320.50;;;6.70;100.00
19748;BME280;10032;51.386;12.516;2024-03-23T11:13:46;99325.41;;;6.73;100.00
19748;BME280;10032;51.386;12.516;2024-03-23T11:16:16;99311.84;;;6.85;100.00
19748;BME280;10032;51.386;12.516;2024-03-23T11:18:42;99325.84;;;7.03;100.00
19748;BME280;10032;51.386;12.516;2024-03-23T11:21:09;99317.44;;;7.16;100.00
19748;BME280;10032;51.386;12.516;2024-03-23T11:23:34;99315.91;;;7.25;100.00
19748;BME280;10032;51.386;12.516;2024-03-23T11:26:00;99315.91;;;7.25;100.00
19748;BME280;10032;51.386;12.516;2024-03-23T11:28:26;99317.50;;;7.43;100.00
19748;BME280;10032;51.386;12.516;2024-03-23T11:30:51;99327.56;;;7.47;100.00
19748;BME280;10032;51.386;12.516;2024-03-23T11:33:17;99330.31;;;7.52;100.00
19748;BME280;10032;51.386;12.516;2024-03-23T11:35:42;99317.72;;;7.58;100.00
19748;BME280;10032;51.386;12.516;2024-03-23T11:38:16;99311.25;;;7.80;100.00
19748;BME280;10032;51.386;12.516;2024-03-23T11:40:47;99307.66;;;7.96;100.00
19748;BME280;10032;51.386;12.516;2024-03-23T11:43:17;99305.53;;;7.98;100.00
19748;BME280;10032;51.386;12.516;2024-03-23T11:45:52;99311.59;;;8.10;100.00
19748;BME280;10032;51.386;12.516;2024-03-23T11:48:20;99314.47;;;8.25;100.00
19748;BME280;10032;51.386;12.516;2024-03-23T11:50:50;99320.84;;;8.41;100.00
19748;BME280;10032;51.386;12.516;2024-03-23T11:53:17;99315.78;;;8.49;100.00
19748;BME280;10032;51.386;12.516;2024-03-23T11:55:53;99308.19;;;8.78;100.00
19748;BME280;10032;51.386;12.516;2024-03-23T11:58:20;99303.66;;;8.88;100.00
19748;BME280;10032;51.386;12.516;2024-03-23T12:00:59;99300.53;;;9.01;100.00
19748;BME280;10032;51.386;12.516;2024-03-23T12:03:26;99306.56;;;9.18;100.00
19748;BME280;10032;51.386;12.516;2024-03-23T12:05:57;99305.78;;;9.23;100.00
19748;BME280;10032;51.386;12.516;2024-03-23T12:13:32;99302.19;;;9.07;100.00
19748;BME280;10032;51.386;12.516;2024-03-23T12:16:19;99301.53;;;9.32;100.00
19748;BME280;10032;51.386;12.516;2024-03-23T12:18:47;99296.00;;;9.58;100.00
19748;BME280;10032;51.386;12.516;2024-03-23T12:21:13;99286.38;;;9.92;100.00
19748;BME280;10032;51.386;12.516;2024-03-23T12:23:41;99291.34;;;10.25;100.00
19748;BME280;10032;51.386;12.516;2024-03-23T12:26:09;99292.44;;;10.29;100.00
19748;BME280;10032;51.386;12.516;2024-03-23T12:28:35;99297.31;;;10.27;100.00
19748;BME280;10032;51.386;12.516;2024-03-23T12:31:00;99295.69;;;10.36;100.00
19748;BME280;10032;51.386;12.516;2024-03-23T12:33:26;99286.47;;;10.57;100.00
19748;BME280;10032;51.386;12.516;2024-03-23T12:35:51;99288.09;;;10.68;100.00
19748;BME280;10032;51.386;12.516;2024-03-23T12:38:17;99286.47;;;10.97;100.00
19748;BME280;10032;51.386;12.516;2024-03-23T12:40:49;99301.63;;;11.13;100.00
19748;BME280;10032;51.386;12.516;2024-03-23T12:43:15;99300.03;;;10.77;100.00
19748;BME280;10032;51.386;12.516;2024-03-23T12:45:41;99301.69;;;10.53;100.00
19748;BME280;10032;51.386;12.516;2024-03-23T12:48:07;99298.69;;;10.65;100.00
19748;BME280;10032;51.386;12.516;2024-03-23T12:50:32;99294.88;;;10.66;100.00
19748;BME280;10032;51.386;12.516;2024-03-23T12:52:58;99298.69;;;10.95;100.00
19748;BME280;10032;51.386;12.516;2024-03-23T12:55:23;99295.38;;;11.23;100.00
19748;BME280;10032;51.386;12.516;2024-03-23T12:57:49;99294.78;;;11.51;100.00
19748;BME280;10032;51.386;12.516;2024-03-23T13:00:14;99289.03;;;11.67;100.00
19748;BME280;10032;51.386;12.516;2024-03-23T13:02:42;99286.00;;;11.74;100.00
19748;BME280;10032;51.386;12.516;2024-03-23T13:05:07;99283.59;;;11.67;100.00
19748;BME280;10032;51.386;12.516;2024-03-23T13:07:36;99288.66;;;11.89;100.00
19748;BME280;10032;51.386;12.516;2024-03-23T13:10:02;99287.53;;;11.95;100.00
19748;BME280;10032;51.386;12.516;2024-03-23T13:12:28;99282.47;;;11.78;100.00
19748;BME280;10032;51.386;12.516;2024-03-23T13:14:54;99272.44;;;11.79;100.00
19748;BME280;10032;51.386;12.516;2024-03-23T13:17:19;99277.22;;;11.97;100.00
19748;BME280;10032;51.386;12.516;2024-03-23T13:19:45;99270.53;;;12.23;100.00
19748;BME280;10032;51.386;12.516;2024-03-23T13:22:10;99256.69;;;12.24;100.00
19748;BME280;10032;51.386;12.516;2024-03-23T13:24:37;99257.72;;;12.33;100.00
19748;BME280;10032;51.386;12.516;2024-03-23T13:27:02;99265.13;;;12.18;100.00
19748;BME280;10032;51.386;12.516;2024-03-23T13:29:27;99259.03;;;12.41;100.00
19748;BME280;10032;51.386;12.516;2024-03-23T13:31:53;99263.56;;;12.50;100.00
19748;BME280;10032;51.386;12.516;2024-03-23T13:34:19;99262.31;;;12.33;100.00
19748;BME280;10032;51.386;12.516;2024-03-23T13:36:46;99244.56;;;12.45;100.00
19748;BME280;10032;51.386;12.516;2024-03-23T13:39:12;99257.97;;;12.70;100.00
19748;BME280;10032;51.386;12.516;2024-03-23T13:41:41;99245.06;;;12.81;100.00
19748;BME280;10032;51.386;12.516;2024-03-23T13:44:07;99251.22;;;12.96;100.00